createdAt,value
2023-01-19T00:03:18.041Z,2.47
2023-01-19T00:08:22.859Z,2.44
2023-01-19T00:13:27.865Z,2.42
2023-01-19T00:18:30.973Z,2.24
2023-01-19T00:23:35.816Z,2.42
2023-01-19T00:28:39.232Z,2.16
2023-01-19T00:33:42.692Z,2.15
2023-01-19T00:38:47.515Z,2.10
2023-01-19T00:43:50.980Z,2.44
2023-01-19T00:48:54.269Z,2.28
2023-01-19T00:54:00.000Z,1.92
2023-01-19T00:59:03.528Z,2.04
2023-01-19T01:04:07.030Z,2.09
2023-01-19T01:09:13.094Z,1.99
2023-01-19T01:14:16.616Z,1.91
2023-01-19T01:19:20.558Z,1.97
2023-01-19T01:24:25.338Z,2.10
2023-01-19T01:29:28.895Z,1.80
2023-01-19T01:34:32.243Z,1.80
2023-01-19T01:39:37.123Z,1.93
2023-01-19T01:44:50.054Z,1.56
2023-01-19T01:49:57.761Z,1.86
2023-01-19T01:55:06.962Z,1.85
2023-01-19T02:00:12.223Z,1.83
2023-01-19T02:05:21.231Z,1.92
2023-01-19T02:10:43.329Z,2.07
2023-01-19T02:15:46.826Z,1.99
2023-01-19T02:21:04.786Z,2.03
2023-01-19T02:26:12.054Z,1.93
2023-01-19T02:31:16.371Z,1.92
2023-01-19T02:36:26.097Z,1.92
2023-01-19T02:41:37.373Z,1.97
2023-01-19T02:46:41.203Z,1.92
2023-01-19T02:51:45.416Z,1.92
2023-01-19T02:57:15.657Z,2.00
2023-01-19T03:02:33.370Z,1.81
2023-01-19T03:07:50.685Z,1.84
2023-01-19T03:13:04.209Z,1.98
2023-01-19T03:18:10.944Z,1.85
2023-01-19T03:23:16.618Z,1.93
2023-01-19T03:28:24.305Z,2.10
2023-01-19T03:33:31.550Z,2.23
2023-01-19T03:38:38.117Z,2.06
2023-01-19T03:43:44.581Z,1.98
2023-01-19T03:48:49.802Z,2.11
2023-01-19T03:53:53.200Z,2.33
2023-01-19T03:58:57.941Z,2.32
2023-01-19T04:04:01.428Z,2.47
2023-01-19T04:09:05.038Z,2.44
2023-01-19T04:14:09.958Z,2.38
2023-01-19T04:19:13.608Z,2.27
2023-01-19T04:24:16.963Z,2.23
2023-01-19T04:29:21.844Z,2.34
2023-01-19T04:34:25.296Z,2.19
2023-01-19T04:39:28.800Z,2.23
2023-01-19T04:44:33.706Z,2.44
2023-01-19T04:49:37.841Z,2.31
2023-01-19T04:54:41.258Z,2.40
2023-01-19T04:59:46.111Z,2.27
2023-01-19T05:04:49.363Z,2.18
2023-01-19T05:09:52.985Z,2.26
2023-01-19T05:14:57.800Z,2.34
2023-01-19T05:20:01.129Z,2.28
2023-01-19T05:25:05.020Z,2.46
2023-01-19T05:30:11.457Z,2.51
2023-01-19T05:35:20.109Z,2.47
2023-01-19T05:40:28.898Z,2.57
2023-01-19T05:45:34.087Z,2.71
2023-01-19T05:50:37.426Z,2.68
2023-01-19T05:55:40.771Z,2.73
2023-01-19T06:00:45.505Z,2.86
2023-01-19T06:05:49.057Z,2.90
2023-01-19T06:10:52.540Z,2.88
2023-01-19T06:16:01.448Z,3.12
2023-01-19T06:21:07.548Z,2.91
2023-01-19T06:26:10.985Z,2.99
2023-01-19T06:31:16.002Z,2.93
2023-01-19T06:36:19.581Z,3.05
2023-01-19T06:41:22.895Z,3.13
2023-01-19T06:46:27.614Z,2.99
2023-01-19T06:51:33.233Z,3.16
2023-01-19T06:56:36.519Z,3.13
2023-01-19T07:01:41.587Z,3.25
2023-01-19T07:06:45.238Z,3.06
2023-01-19T07:11:49.960Z,3.12
2023-01-19T07:16:55.004Z,3.12
2023-01-19T07:21:58.773Z,3.22
2023-01-19T07:27:02.340Z,3.19
2023-01-19T07:32:07.681Z,3.29
2023-01-19T07:37:11.343Z,3.30
2023-01-19T07:42:14.733Z,3.46
2023-01-19T07:47:20.107Z,3.40
2023-01-19T07:52:23.597Z,3.43
2023-01-19T07:57:26.916Z,3.40
2023-01-19T08:02:32.022Z,3.37
2023-01-19T08:07:35.431Z,3.54
2023-01-19T08:12:38.760Z,3.44
2023-01-19T08:17:44.207Z,3.52
2023-01-19T08:22:48.949Z,3.59
2023-01-19T08:27:55.051Z,3.76
2023-01-19T08:33:04.813Z,3.48
2023-01-19T08:38:09.771Z,3.49
2023-01-19T08:43:13.856Z,3.20
2023-01-19T08:48:22.219Z,3.57
2023-01-19T08:53:25.768Z,3.37
2023-01-19T08:58:29.606Z,3.50
2023-01-19T09:03:34.476Z,3.49
2023-01-19T09:08:38.739Z,3.42
2023-01-19T09:13:42.776Z,3.48
2023-01-19T09:18:47.528Z,3.50
2023-01-19T09:23:50.941Z,3.59
2023-01-19T09:28:54.425Z,3.41
2023-01-19T09:33:59.205Z,3.48
2023-01-19T09:39:03.060Z,3.39
2023-01-19T09:44:09.676Z,3.19
2023-01-19T09:49:17.777Z,3.52
2023-01-19T09:54:25.520Z,3.63
2023-01-19T09:59:31.534Z,3.64
2023-01-19T10:04:41.411Z,3.47
2023-01-19T10:09:59.178Z,3.58
2023-01-19T10:15:12.560Z,3.58
2023-01-19T10:20:26.226Z,3.50
2023-01-19T10:25:29.977Z,3.34
2023-01-19T10:30:33.819Z,3.56
2023-01-19T10:35:39.129Z,3.38
2023-01-19T10:40:49.780Z,3.56
2023-01-19T10:45:53.147Z,3.47
2023-01-19T10:51:05.995Z,3.44
2023-01-19T10:56:18.687Z,3.58
2023-01-19T11:01:24.575Z,3.48
2023-01-19T11:06:31.287Z,3.66
2023-01-19T11:11:46.680Z,3.79
2023-01-19T11:16:53.193Z,3.73
2023-01-19T11:22:12.627Z,3.71
2023-01-19T11:27:18.563Z,3.73
2023-01-19T11:32:23.681Z,3.58
2023-01-19T11:37:31.734Z,3.66
2023-01-19T11:42:37.328Z,3.56
2023-01-19T11:47:44.260Z,3.52
2023-01-19T11:52:53.613Z,3.55
2023-01-19T11:57:57.579Z,3.40
2023-01-19T12:03:06.912Z,3.16
2023-01-19T12:08:16.941Z,3.54
2023-01-19T12:13:23.831Z,3.68
2023-01-19T12:18:32.968Z,3.44
2023-01-19T12:23:55.021Z,3.27
2023-01-19T12:29:01.677Z,3.52
2023-01-19T12:34:36.203Z,3.43
2023-01-19T12:39:50.385Z,3.25
2023-01-19T12:45:08.212Z,3.27
2023-01-19T12:50:19.299Z,3.45
2023-01-19T12:55:26.069Z,3.27
2023-01-19T13:00:33.557Z,3.27
2023-01-19T13:05:58.372Z,3.32
2023-01-19T13:11:24.355Z,3.42
2023-01-19T13:17:00.406Z,3.48
2023-01-19T13:23:04.952Z,3.42
2023-01-19T13:28:17.565Z,3.37
2023-01-19T13:33:23.664Z,3.42
2023-01-19T13:38:29.337Z,3.40
2023-01-19T13:43:38.698Z,3.31
2023-01-19T13:48:53.624Z,3.35
2023-01-19T13:53:58.232Z,3.21
2023-01-19T13:59:11.989Z,3.09
2023-01-19T14:04:30.743Z,3.15
2023-01-19T14:09:34.206Z,3.24
2023-01-19T14:14:39.861Z,3.11
2023-01-19T14:19:50.251Z,3.03
2023-01-19T14:24:53.796Z,3.00
2023-01-19T14:30:16.554Z,3.05
2023-01-19T14:35:26.201Z,3.08
2023-01-19T14:40:31.168Z,3.08
2023-01-19T14:45:36.583Z,2.85
2023-01-19T14:50:51.013Z,2.87
2023-01-19T14:56:07.041Z,3.01
2023-01-19T15:01:12.048Z,3.03
2023-01-19T15:06:18.115Z,2.90
2023-01-19T15:11:24.973Z,2.61
2023-01-19T15:16:33.033Z,2.66
2023-01-19T15:21:36.481Z,2.62
2023-01-19T15:26:41.367Z,2.70
2023-01-19T15:31:45.818Z,2.74
2023-01-19T15:36:49.349Z,2.61
2023-01-19T15:41:52.691Z,2.56
2023-01-19T15:46:57.969Z,2.70
2023-01-19T15:52:01.585Z,2.56
2023-01-19T15:57:05.156Z,2.46
2023-01-19T16:02:11.313Z,2.51
2023-01-19T16:07:14.858Z,2.44
2023-01-19T16:12:18.188Z,2.53
2023-01-19T16:17:23.168Z,2.44
2023-01-19T16:22:26.680Z,2.63
2023-01-19T16:27:30.580Z,2.56
2023-01-19T16:32:36.582Z,2.74
2023-01-19T16:37:40.144Z,2.65
2023-01-19T16:42:43.471Z,2.72
2023-01-19T16:47:50.819Z,2.70
2023-01-19T16:52:57.674Z,2.62
2023-01-19T16:58:01.161Z,2.50
2023-01-19T17:03:06.119Z,2.43
2023-01-19T17:08:09.727Z,2.52
2023-01-19T17:13:13.066Z,2.63
2023-01-19T17:18:17.907Z,2.53
2023-01-19T17:23:21.370Z,2.33
2023-01-19T17:28:25.084Z,2.56
2023-01-19T17:33:29.855Z,2.60
2023-01-19T17:38:33.445Z,2.49
2023-01-19T17:43:36.858Z,2.24
2023-01-19T17:48:41.900Z,2.39
2023-01-19T17:53:45.058Z,2.28
2023-01-19T17:58:50.974Z,2.39
2023-01-19T18:03:56.318Z,2.53
2023-01-19T18:09:00.284Z,2.07
2023-01-19T18:14:03.700Z,2.19
2023-01-19T18:19:10.645Z,2.29
2023-01-19T18:24:14.095Z,2.20
2023-01-19T18:29:20.657Z,2.15
2023-01-19T18:34:25.388Z,2.20
2023-01-19T18:39:31.247Z,2.21
2023-01-19T18:44:34.567Z,2.22
2023-01-19T18:49:39.491Z,2.32
2023-01-19T18:54:42.539Z,2.14
2023-01-19T18:59:49.023Z,2.07
2023-01-19T19:04:53.795Z,2.19
2023-01-19T19:09:57.234Z,2.15
2023-01-19T19:15:00.829Z,2.11
2023-01-19T19:20:05.993Z,2.25
2023-01-19T19:25:10.214Z,2.21
2023-01-19T19:30:15.968Z,2.30
2023-01-19T19:35:21.454Z,2.31
2023-01-19T19:40:25.239Z,2.31
2023-01-19T19:45:28.556Z,2.34
2023-01-19T19:50:33.433Z,2.48
2023-01-19T19:55:36.491Z,2.73
2023-01-19T20:00:39.899Z,2.31
2023-01-19T20:05:45.047Z,2.40
2023-01-19T20:10:48.528Z,2.25
2023-01-19T20:15:52.715Z,2.49
2023-01-19T20:20:57.672Z,2.41
2023-01-19T20:26:05.668Z,2.77
2023-01-19T20:31:16.975Z,2.55
2023-01-19T20:36:24.446Z,2.48
2023-01-19T20:41:29.891Z,2.61
2023-01-19T20:46:33.226Z,2.66
2023-01-19T20:51:45.334Z,2.79
2023-01-19T20:56:49.009Z,2.65
2023-01-19T21:01:52.639Z,2.66
2023-01-19T21:06:57.480Z,2.70
2023-01-19T21:12:00.974Z,2.55
2023-01-19T21:17:04.326Z,2.51
2023-01-19T21:22:19.375Z,2.54
2023-01-19T21:27:22.570Z,2.42
2023-01-19T21:32:27.526Z,2.63
2023-01-19T21:37:32.236Z,2.76
2023-01-19T21:42:35.662Z,2.63
2023-01-19T21:47:39.053Z,2.84
2023-01-19T21:52:44.435Z,2.89
2023-01-19T21:57:47.763Z,2.92
2023-01-19T22:03:03.071Z,2.89
2023-01-19T22:08:09.778Z,3.00
2023-01-19T22:13:13.238Z,3.03
2023-01-19T22:18:16.669Z,3.19
2023-01-19T22:23:21.377Z,2.95
2023-01-19T22:28:24.856Z,3.15
2023-01-19T22:33:29.498Z,3.20
2023-01-19T22:38:34.201Z,3.14
2023-01-19T22:43:39.620Z,3.11
2023-01-19T22:48:42.601Z,3.14
2023-01-19T22:53:47.944Z,3.17
2023-01-19T22:58:51.386Z,3.21
2023-01-19T23:03:55.347Z,3.22
2023-01-19T23:09:02.767Z,3.04
2023-01-19T23:14:07.563Z,3.19
2023-01-19T23:19:12.837Z,3.26
2023-01-19T23:24:17.960Z,3.28
2023-01-19T23:29:21.492Z,3.23
2023-01-19T23:34:24.947Z,3.19
2023-01-19T23:39:29.955Z,3.36
2023-01-19T23:44:35.238Z,3.17
2023-01-19T23:49:39.911Z,3.34
2023-01-19T23:54:45.025Z,3.43
2023-01-19T23:59:48.441Z,3.55
